Time;durP1;ratioP1;P1;durP2;ratioP2;P2;SDS_P1;SDS_P2;PMS_P1;PMS_P2;Temp;Humidity;BMP_temperature;BMP_pressure;BME280_temperature;BME280_humidity;BME280_pressure;Samples;Min_cycle;Max_cycle;Signal;HPM_P1;HPM_P2
2022/05/19 00:02:12;;;;;;;;;;;9.40;99.90;;;;;;5072738;28;19974;-70
2022/05/19 00:04:38;;;;;;;;;;;9.40;99.90;;;;;;5088155;28;19913;-70
2022/05/19 00:07:04;;;;;;;;;;;9.40;99.90;;;;;;5072614;28;20007;-70
2022/05/19 00:09:30;;;;;;;;;;;9.40;99.90;;;;;;5072643;28;19999;-70
2022/05/19 00:11:56;;;;;;;;;;;9.40;99.90;;;;;;5072615;28;20000;-70
2022/05/19 00:14:22;;;;;;;;;;;9.40;99.90;;;;;;5072383;28;19921;-70
2022/05/19 00:16:48;;;;;;;;;;;9.30;99.90;;;;;;5072464;28;19919;-70
2022/05/19 00:19:14;;;;;;;;;;;9.40;99.90;;;;;;5072339;28;19938;-70
2022/05/19 00:21:40;;;;;;;;;;;9.40;99.90;;;;;;5072468;28;19928;-70
2022/05/19 00:24:06;;;;;;;;;;;9.40;99.90;;;;;;5072360;28;19940;-70
2022/05/19 00:26:32;;;;;;;;;;;9.40;99.90;;;;;;5072268;28;19913;-70
2022/05/19 00:28:58;;;;;;;;;;;9.40;99.90;;;;;;5072407;28;19916;-71
2022/05/19 00:31:23;;;;;;;;;;;9.40;99.90;;;;;;5087858;28;19958;-70
2022/05/19 00:33:49;;;;;;;;;;;9.40;99.90;;;;;;5071951;28;20364;-70
2022/05/19 00:36:16;;;;;;;;;;;9.40;99.90;;;;;;5072012;28;20368;-70
2022/05/19 00:38:41;;;;;;;;;;;9.40;99.90;;;;;;5072212;28;19924;-70
2022/05/19 00:41:08;;;;;;;;;;;9.40;99.90;;;;;;5072206;28;20555;-70
2022/05/19 00:43:35;;;;;;;;;;;9.30;99.90;;;;;;5072184;28;20094;-71
2022/05/19 00:46:06;;;;;;;;;;;9.30;99.90;;;;;;5072518;28;19943;-71
2022/05/19 00:48:46;;;;;;;;;;;9.30;99.90;;;;;;5072357;28;19916;-70
2022/05/19 00:51:13;;;;;;;;;;;9.30;99.90;;;;;;5072202;28;20426;-70
2022/05/19 00:53:41;;;;;;;;;;;9.30;99.90;;;;;;5087246;28;19971;-70
2022/05/19 00:56:29;;;;;;;;;;;9.20;99.90;;;;;;5071890;28;19912;-70
2022/05/19 00:59:00;;;;;;;;;;;9.20;99.90;;;;;;5063464;28;19959;-70
2022/05/19 01:01:25;;;;;;;;;;;9.20;99.90;;;;;;5071924;28;19997;-70
2022/05/19 01:04:03;;;;;;;;;;;9.20;99.90;;;;;;5071476;28;20392;-70
2022/05/19 01:06:29;;;;;;;;;;;9.20;99.90;;;;;;5071487;28;19948;-70
2022/05/19 01:08:56;;;;;;;;;;;9.20;99.90;;;;;;5071455;28;19927;-70
2022/05/19 01:11:22;;;;;;;;;;;9.10;99.90;;;;;;5071466;28;19909;-70
2022/05/19 01:13:47;;;;;;;;;;;9.00;99.90;;;;;;5071472;28;19917;-70
2022/05/19 01:16:13;;;;;;;;;;;9.00;99.90;;;;;;5071366;28;19913;-70
2022/05/19 01:18:39;;;;;;;;;;;9.00;99.90;;;;;;5071468;28;20344;-70
2022/05/19 01:21:08;;;;;;;;;;;9.00;99.90;;;;;;5071348;28;20396;-70
2022/05/19 01:23:37;;;;;;;;;;;8.90;99.90;;;;;;5071283;28;19924;-71
2022/05/19 01:26:02;;;;;;;;;;;8.90;99.90;;;;;;5071472;28;19960;-71
2022/05/19 01:28:28;;;;;;;;;;;8.90;99.90;;;;;;5071344;28;20021;-69
2022/05/19 01:30:54;;;;;;;;;;;8.90;99.90;;;;;;5071239;28;19915;-69
2022/05/19 01:33:19;;;;;;;;;;;8.90;99.90;;;;;;5086778;28;19910;-70
2022/05/19 01:35:45;;;;;;;;;;;8.90;99.90;;;;;;5071171;28;20372;-69
2022/05/19 01:38:15;;;;;;;;;;;8.80;99.90;;;;;;5071582;28;19948;-70
2022/05/19 01:40:47;;;;;;;;;;;8.80;99.90;;;;;;5073877;28;19908;-70
2022/05/19 01:43:30;;;;;;;;;;;8.80;99.90;;;;;;5078123;28;20294;-70
2022/05/19 01:46:03;;;;;;;;;;;8.70;99.90;;;;;;5078052;28;19990;-69
2022/05/19 01:48:58;;;;;;;;;;;8.80;99.90;;;;;;5078185;28;19974;-70
2022/05/19 01:51:38;;;;;;;;;;;8.80;99.90;;;;;;5063582;28;19908;-70
2022/05/19 01:54:06;;;;;;;;;;;8.70;99.90;;;;;;5078046;28;19916;-70
2022/05/19 01:56:49;;;;;;;;;;;8.70;99.90;;;;;;5077754;28;19914;-70
2022/05/19 01:59:18;;;;;;;;;;;8.70;99.90;;;;;;5077945;28;19917;-70
2022/05/19 02:01:46;;;;;;;;;;;8.70;99.90;;;;;;5077965;28;20010;-70
2022/05/19 02:04:17;;;;;;;;;;;8.70;99.90;;;;;;5077539;28;19924;-70
2022/05/19 02:06:49;;;;;;;;;;;8.70;99.90;;;;;;5077659;28;19917;-70
2022/05/19 02:09:15;;;;;;;;;;;8.70;99.90;;;;;;5077753;28;19917;-70
2022/05/19 02:11:42;;;;;;;;;;;8.50;99.90;;;;;;5077977;28;20330;-70
2022/05/19 02:14:10;;;;;;;;;;;8.70;99.90;;;;;;5077652;28;19966;-70
2022/05/19 02:16:37;;;;;;;;;;;8.60;99.90;;;;;;5077601;28;19970;-70
2022/05/19 02:19:03;;;;;;;;;;;8.70;99.90;;;;;;5077645;28;19920;-70
2022/05/19 02:21:28;;;;;;;;;;;8.60;99.90;;;;;;5077480;28;19920;-69
2022/05/19 02:24:01;;;;;;;;;;;8.60;99.90;;;;;;5077219;28;19982;-70
2022/05/19 02:26:33;;;;;;;;;;;8.60;99.90;;;;;;5077591;28;19909;-70
2022/05/19 02:29:01;;;;;;;;;;;8.60;99.90;;;;;;5077393;28;19923;-70
2022/05/19 02:31:29;;;;;;;;;;;8.60;99.90;;;;;;5076919;28;20412;-70
2022/05/19 02:33:55;;;;;;;;;;;8.60;99.90;;;;;;5077285;28;19958;-70
2022/05/19 02:36:20;;;;;;;;;;;8.60;99.90;;;;;;5077280;28;20367;-69
2022/05/19 02:38:46;;;;;;;;;;;8.70;99.90;;;;;;5077225;28;19958;-69
2022/05/19 02:41:11;;;;;;;;;;;8.60;99.90;;;;;;5077334;28;19916;-69
2022/05/19 02:43:37;;;;;;;;;;;8.60;99.90;;;;;;5077285;28;19991;-69
2022/05/19 02:46:02;;;;;;;;;;;8.60;99.90;;;;;;5077408;28;19912;-69
2022/05/19 02:48:28;;;;;;;;;;;8.60;99.90;;;;;;5077212;28;20011;-70
2022/05/19 02:50:53;;;;;;;;;;;8.60;99.90;;;;;;5077248;28;19912;-70
2022/05/19 02:53:19;;;;;;;;;;;8.60;99.90;;;;;;5073235;28;19916;-69
2022/05/19 02:55:44;;;;;;;;;;;8.70;99.90;;;;;;5073889;28;19923;-70
2022/05/19 02:58:11;;;;;;;;;;;8.70;99.90;;;;;;5074178;28;19912;-70
2022/05/19 03:00:36;;;;;;;;;;;8.70;99.90;;;;;;5073795;28;19912;-70
2022/05/19 03:03:02;;;;;;;;;;;8.60;99.90;;;;;;5073934;28;19917;-70
2022/05/19 03:05:29;;;;;;;;;;;8.70;99.90;;;;;;5074249;28;20278;-70
2022/05/19 03:07:55;;;;;;;;;;;8.70;99.90;;;;;;5073795;28;19920;-70
2022/05/19 03:10:21;;;;;;;;;;;8.70;99.90;;;;;;5072433;28;19912;-70
2022/05/19 03:12:46;;;;;;;;;;;8.80;99.90;;;;;;5073691;28;20426;-70
2022/05/19 03:15:12;;;;;;;;;;;8.80;99.90;;;;;;5073729;28;19920;-70
2022/05/19 03:17:38;;;;;;;;;;;8.80;99.90;;;;;;5073853;28;20332;-70
2022/05/19 03:20:05;;;;;;;;;;;8.80;99.90;;;;;;5073738;28;19916;-70
2022/05/19 03:22:30;;;;;;;;;;;8.80;99.90;;;;;;5073378;28;19982;-70
2022/05/19 03:24:56;;;;;;;;;;;8.90;99.90;;;;;;5088954;28;20353;-69
2022/05/19 03:27:22;;;;;;;;;;;8.90;99.90;;;;;;5073415;28;19920;-69
2022/05/19 03:29:51;;;;;;;;;;;8.90;99.90;;;;;;5073486;28;20007;-70
2022/05/19 03:32:17;;;;;;;;;;;9.00;99.90;;;;;;5073381;28;19970;-70
2022/05/19 03:34:42;;;;;;;;;;;9.00;99.90;;;;;;5073498;28;20263;-70
2022/05/19 03:37:08;;;;;;;;;;;9.00;99.90;;;;;;5073330;28;19916;-70
2022/05/19 03:39:36;;;;;;;;;;;9.10;99.90;;;;;;5073479;28;20253;-71
2022/05/19 03:42:03;;;;;;;;;;;9.10;99.90;;;;;;5073473;28;20356;-70
2022/05/19 03:44:28;;;;;;;;;;;9.10;99.90;;;;;;5073168;28;20248;-70
2022/05/19 03:46:54;;;;;;;;;;;9.20;99.90;;;;;;5073107;28;19920;-70
2022/05/19 03:49:19;;;;;;;;;;;9.20;99.90;;;;;;5072830;28;20290;-71
2022/05/19 03:51:45;;;;;;;;;;;9.20;99.90;;;;;;5073028;28;19923;-70
2022/05/19 03:54:10;;;;;;;;;;;9.30;99.90;;;;;;5072913;28;20003;-70
2022/05/19 03:56:36;;;;;;;;;;;9.40;99.90;;;;;;5072882;28;19916;-71
2022/05/19 03:59:02;;;;;;;;;;;9.40;99.90;;;;;;5072871;28;19909;-71
2022/05/19 04:01:28;;;;;;;;;;;9.50;99.90;;;;;;5088255;28;19916;-70
2022/05/19 04:03:53;;;;;;;;;;;9.50;99.90;;;;;;5072427;28;19950;-71
2022/05/19 04:06:19;;;;;;;;;;;9.60;99.90;;;;;;5071294;28;20365;-70
2022/05/19 04:08:45;;;;;;;;;;;9.70;99.90;;;;;;5072617;28;19919;-71
2022/05/19 04:11:10;;;;;;;;;;;9.70;99.90;;;;;;5072645;28;20251;-70
2022/05/19 04:13:36;;;;;;;;;;;9.80;99.90;;;;;;5072388;28;19922;-71
2022/05/19 04:16:02;;;;;;;;;;;9.80;99.90;;;;;;5072537;28;19931;-70
2022/05/19 04:18:28;;;;;;;;;;;9.90;99.90;;;;;;5072287;28;20276;-71
2022/05/19 04:20:54;;;;;;;;;;;9.90;99.90;;;;;;5072239;28;19923;-70
2022/05/19 04:23:19;;;;;;;;;;;10.00;99.90;;;;;;5072476;28;19913;-71
2022/05/19 04:25:45;;;;;;;;;;;10.00;99.90;;;;;;5071979;28;20292;-70
2022/05/19 04:28:11;;;;;;;;;;;10.00;99.90;;;;;;5072364;28;19912;-70
2022/05/19 04:30:36;;;;;;;;;;;10.10;99.90;;;;;;5071912;28;19926;-70
2022/05/19 04:33:02;;;;;;;;;;;10.20;99.90;;;;;;5072140;28;19932;-71
2022/05/19 04:35:28;;;;;;;;;;;10.30;99.90;;;;;;5072033;28;19916;-71
2022/05/19 04:37:57;;;;;;;;;;;10.40;99.90;;;;;;5072211;28;20058;-71
2022/05/19 04:40:22;;;;;;;;;;;10.40;99.90;;;;;;5072327;28;20360;-71
2022/05/19 04:42:48;;;;;;;;;;;10.60;99.90;;;;;;5071947;28;19920;-70
2022/05/19 04:45:14;;;;;;;;;;;10.50;99.90;;;;;;5072122;28;19939;-70
2022/05/19 04:47:40;;;;;;;;;;;10.60;99.90;;;;;;5071829;28;19912;-70
2022/05/19 04:50:07;;;;;;;;;;;10.70;99.90;;;;;;5087155;28;20361;-70
2022/05/19 04:52:32;;;;;;;;;;;10.80;99.90;;;;;;5071790;28;19917;-70
2022/05/19 04:54:58;;;;;;;;;;;10.90;99.90;;;;;;5071683;28;20028;-70
2022/05/19 04:57:23;;;;;;;;;;;10.90;99.90;;;;;;5071573;28;20003;-70
2022/05/19 04:59:49;;;;;;;;;;;11.00;99.90;;;;;;5071735;28;20015;-70
2022/05/19 05:02:14;;;;;;;;;;;11.10;99.90;;;;;;5071526;28;20440;-70
2022/05/19 05:04:40;;;;;;;;;;;11.10;99.90;;;;;;5071679;28;20362;-70
2022/05/19 05:07:05;;;;;;;;;;;11.20;99.90;;;;;;5071496;28;19919;-70
2022/05/19 05:09:31;;;;;;;;;;;11.30;99.90;;;;;;5071536;28;19912;-70
2022/05/19 05:11:57;;;;;;;;;;;11.40;99.90;;;;;;5071424;28;19966;-70
2022/05/19 05:14:22;;;;;;;;;;;11.50;99.90;;;;;;5071122;28;20565;-71
2022/05/19 05:16:48;;;;;;;;;;;11.60;99.90;;;;;;5086148;28;19920;-71
2022/05/19 05:19:18;;;;;;;;;;;11.70;99.90;;;;;;5071402;28;19999;-71
2022/05/19 05:21:44;;;;;;;;;;;11.80;99.90;;;;;;5071290;28;19924;-70
2022/05/19 05:24:10;;;;;;;;;;;11.90;99.90;;;;;;5071174;28;19916;-71
2022/05/19 05:26:35;;;;;;;;;;;12.00;99.90;;;;;;5071232;28;19965;-71
2022/05/19 05:29:01;;;;;;;;;;;12.00;99.90;;;;;;5071308;28;20316;-71
2022/05/19 05:31:26;;;;;;;;;;;12.20;99.90;;;;;;5070978;28;19990;-71
2022/05/19 05:33:52;;;;;;;;;;;12.30;99.90;;;;;;5071152;28;19916;-71
2022/05/19 05:36:17;;;;;;;;;;;12.40;99.90;;;;;;5070949;28;20253;-71
2022/05/19 05:38:43;;;;;;;;;;;12.50;99.90;;;;;;5071056;28;20023;-71
2022/05/19 05:41:08;;;;;;;;;;;12.60;99.90;;;;;;5071170;28;20398;-71
2022/05/19 05:43:35;;;;;;;;;;;12.70;99.90;;;;;;5070693;28;19999;-71
2022/05/19 05:46:08;;;;;;;;;;;12.80;99.90;;;;;;5071197;28;20392;-71
2022/05/19 05:48:36;;;;;;;;;;;12.90;99.90;;;;;;5071113;28;19913;-71
2022/05/19 05:51:12;;;;;;;;;;;13.00;99.90;;;;;;5070689;28;19999;-71
2022/05/19 05:53:39;;;;;;;;;;;13.10;99.90;;;;;;5071197;28;19944;-72
2022/05/19 05:56:05;;;;;;;;;;;13.30;99.90;;;;;;5070726;28;19916;-70
2022/05/19 05:58:31;;;;;;;;;;;13.40;99.90;;;;;;5070907;28;20364;-70
2022/05/19 06:00:56;;;;;;;;;;;13.50;99.90;;;;;;5069637;28;19959;-71
2022/05/19 06:03:22;;;;;;;;;;;13.60;99.90;;;;;;5086255;28;20011;-71
2022/05/19 06:05:48;;;;;;;;;;;13.70;99.90;;;;;;5070687;28;19912;-71
2022/05/19 06:08:13;;;;;;;;;;;13.80;99.90;;;;;;5070764;28;19909;-70
2022/05/19 06:10:39;;;;;;;;;;;13.80;99.90;;;;;;5070954;28;19919;-71
2022/05/19 06:13:05;;;;;;;;;;;14.00;99.90;;;;;;5070803;28;19908;-70
2022/05/19 06:15:30;;;;;;;;;;;14.10;99.90;;;;;;5085761;28;19920;-71
2022/05/19 06:17:57;;;;;;;;;;;14.10;99.90;;;;;;5070749;28;19954;-71
2022/05/19 06:20:23;;;;;;;;;;;14.20;99.90;;;;;;5085998;28;19966;-71
2022/05/19 06:22:49;;;;;;;;;;;14.40;99.90;;;;;;5071108;28;19924;-71
2022/05/19 06:25:16;;;;;;;;;;;14.50;99.90;;;;;;5070878;28;19920;-71
2022/05/19 06:27:42;;;;;;;;;;;14.70;99.90;;;;;;5073055;28;19920;-71
2022/05/19 06:30:08;;;;;;;;;;;14.80;99.90;;;;;;5089960;28;19919;-71
2022/05/19 06:32:35;;;;;;;;;;;14.90;99.90;;;;;;5089958;28;20360;-71
2022/05/19 06:35:00;;;;;;;;;;;15.00;99.90;;;;;;5074671;28;20284;-71
2022/05/19 06:37:26;;;;;;;;;;;15.20;99.90;;;;;;5074519;28;19912;-71
2022/05/19 06:39:51;;;;;;;;;;;15.30;99.90;;;;;;5074711;28;19926;-71
2022/05/19 06:42:17;;;;;;;;;;;15.40;99.90;;;;;;5074022;28;19962;-71
2022/05/19 06:44:43;;;;;;;;;;;15.40;99.90;;;;;;5074373;28;20576;-70
2022/05/19 06:47:15;;;;;;;;;;;15.40;99.90;;;;;;5074563;28;20355;-71
2022/05/19 06:49:45;;;;;;;;;;;15.50;99.90;;;;;;5074223;28;20280;-71
2022/05/19 06:52:13;;;;;;;;;;;15.70;99.90;;;;;;5072647;28;19962;-71
2022/05/19 06:54:39;;;;;;;;;;;15.70;99.90;;;;;;5074192;28;20319;-71
2022/05/19 06:57:05;;;;;;;;;;;15.80;99.90;;;;;;5074238;28;19939;-71
2022/05/19 06:59:30;;;;;;;;;;;15.80;99.90;;;;;;5074011;28;20020;-71
2022/05/19 07:01:56;;;;;;;;;;;15.90;99.90;;;;;;5073641;28;20283;-71
2022/05/19 07:04:21;;;;;;;;;;;16.10;99.90;;;;;;5073710;28;19913;-72
2022/05/19 07:06:46;;;;;;;;;;;16.20;99.90;;;;;;5074027;28;19959;-72
2022/05/19 07:09:12;;;;;;;;;;;16.40;99.90;;;;;;5073920;28;20365;-72
2022/05/19 07:11:37;;;;;;;;;;;16.60;99.90;;;;;;5073919;28;19920;-71
2022/05/19 07:14:05;;;;;;;;;;;16.70;99.90;;;;;;5073766;28;19965;-71
2022/05/19 07:16:31;;;;;;;;;;;16.80;99.90;;;;;;5073539;28;20331;-71
2022/05/19 07:21:42;;;;;;;;;;;16.90;99.70;;;;;;5073602;28;19931;-71
2022/05/19 07:24:19;;;;;;;;;;;17.00;99.40;;;;;;5073272;28;19920;-71
2022/05/19 07:26:51;;;;;;;;;;;17.10;98.80;;;;;;5073408;28;19912;-71
2022/05/19 07:29:18;;;;;;;;;;;17.10;98.70;;;;;;5073610;28;19924;-71
2022/05/19 07:31:44;;;;;;;;;;;17.20;98.60;;;;;;5073298;28;19954;-71
2022/05/19 07:34:11;;;;;;;;;;;17.10;98.10;;;;;;5073393;28;20007;-71
2022/05/19 07:36:36;;;;;;;;;;;17.40;97.80;;;;;;5073217;28;19985;-71
2022/05/19 07:39:02;;;;;;;;;;;17.40;98.30;;;;;;5072824;28;19919;-71
2022/05/19 07:41:29;;;;;;;;;;;17.70;98.60;;;;;;5073315;28;19935;-71
2022/05/19 07:43:55;;;;;;;;;;;17.90;97.80;;;;;;5071656;28;19916;-71
2022/05/19 07:46:21;;;;;;;;;;;17.90;97.20;;;;;;5072857;28;19995;-72
2022/05/19 07:48:46;;;;;;;;;;;18.00;96.50;;;;;;5073269;28;20015;-71
2022/05/19 07:51:12;;;;;;;;;;;17.90;96.60;;;;;;5073058;28;20399;-69
2022/05/19 07:53:38;;;;;;;;;;;18.00;97.00;;;;;;5072737;28;19991;-70
2022/05/19 07:56:03;;;;;;;;;;;18.10;96.70;;;;;;5072606;28;19916;-70
2022/05/19 07:58:29;;;;;;;;;;;18.20;95.70;;;;;;5072772;28;20003;-71
2022/05/19 08:00:56;;;;;;;;;;;18.20;95.80;;;;;;5072937;28;20031;-71
2022/05/19 08:03:23;;;;;;;;;;;18.50;94.70;;;;;;5072489;28;20015;-70
2022/05/19 08:05:49;;;;;;;;;;;18.60;95.70;;;;;;5072657;28;19916;-71
2022/05/19 08:08:14;;;;;;;;;;;18.70;94.40;;;;;;5072843;28;20464;-71
2022/05/19 08:10:40;;;;;;;;;;;18.80;93.80;;;;;;5072325;28;19913;-71
2022/05/19 08:15:49;;;;;;;;;;;19.10;95.00;;;;;;5072434;28;19924;-70
2022/05/19 08:18:17;;;;;;;;;;;19.30;93.80;;;;;;5072362;28;19908;-71
2022/05/19 08:20:46;;;;;;;;;;;19.40;94.10;;;;;;5072330;28;19913;-71
2022/05/19 08:23:19;;;;;;;;;;;19.70;91.90;;;;;;5072004;28;19924;-71
2022/05/19 08:25:46;;;;;;;;;;;19.80;90.80;;;;;;5072358;28;19939;-70
2022/05/19 08:28:14;;;;;;;;;;;19.90;92.10;;;;;;5072043;28;19915;-71
2022/05/19 08:30:41;;;;;;;;;;;19.90;92.00;;;;;;5072090;28;19943;-70
2022/05/19 08:33:06;;;;;;;;;;;20.20;91.00;;;;;;5072307;28;20376;-71
2022/05/19 08:35:32;;;;;;;;;;;20.40;89.50;;;;;;5071914;28;20017;-70
2022/05/19 08:37:57;;;;;;;;;;;20.70;87.40;;;;;;5087579;28;20038;-71
2022/05/19 08:40:23;;;;;;;;;;;20.90;86.10;;;;;;5072266;28;19913;-70
2022/05/19 08:42:51;;;;;;;;;;;20.80;84.80;;;;;;5072300;28;20398;-70
2022/05/19 08:45:19;;;;;;;;;;;20.80;85.40;;;;;;5072228;28;19991;-71
2022/05/19 08:47:47;;;;;;;;;;;20.80;87.40;;;;;;5072265;28;19924;-72
2022/05/19 08:50:45;;;;;;;;;;;21.00;85.20;;;;;;5071177;28;19912;-71
2022/05/19 08:53:12;;;;;;;;;;;21.10;82.70;;;;;;5036847;28;19990;-71
2022/05/19 08:55:42;;;;;;;;;;;21.10;82.10;;;;;;5071813;28;19920;-71
2022/05/19 08:58:12;;;;;;;;;;;20.90;80.90;;;;;;5071782;28;20418;-71
2022/05/19 09:00:40;;;;;;;;;;;20.70;85.50;;;;;;5071481;28;19916;-72
2022/05/19 09:03:08;;;;;;;;;;;20.80;83.20;;;;;;5071591;28;20326;-71
2022/05/19 09:05:53;;;;;;;;;;;21.10;82.60;;;;;;5071614;28;19931;-72
2022/05/19 09:08:30;;;;;;;;;;;21.50;81.60;;;;;;5071468;28;20003;-72
2022/05/19 09:11:28;;;;;;;;;;;21.90;80.10;;;;;;5071781;28;19920;-71
2022/05/19 09:14:03;;;;;;;;;;;22.20;77.60;;;;;;5037574;28;20387;-70
2022/05/19 09:16:32;;;;;;;;;;;22.10;75.20;;;;;;5071440;28;19920;-71
2022/05/19 09:19:04;;;;;;;;;;;22.20;75.90;;;;;;5071475;28;20337;-71
2022/05/19 09:21:29;;;;;;;;;;;22.30;76.60;;;;;;5071251;28;19967;-71
2022/05/19 09:23:55;;;;;;;;;;;22.30;74.80;;;;;;5071287;28;19951;-71
2022/05/19 09:26:34;;;;;;;;;;;22.30;74.10;;;;;;5071475;28;19912;-72
2022/05/19 09:29:29;;;;;;;;;;;22.20;73.80;;;;;;5071274;28;20370;-71
2022/05/19 09:32:02;;;;;;;;;;;21.90;75.90;;;;;;5057870;28;19999;-71
2022/05/19 09:34:29;;;;;;;;;;;21.70;76.90;;;;;;5071198;28;19955;-70
2022/05/19 09:37:00;;;;;;;;;;;21.80;75.00;;;;;;5071196;28;19913;-70
2022/05/19 09:39:26;;;;;;;;;;;21.80;76.60;;;;;;5071160;28;20006;-72
2022/05/19 09:41:53;;;;;;;;;;;22.00;76.50;;;;;;5071068;28;19917;-70
2022/05/19 09:44:23;;;;;;;;;;;21.70;72.50;;;;;;5071090;28;20269;-69
2022/05/19 09:46:50;;;;;;;;;;;21.70;72.80;;;;;;5071092;28;19919;-70
2022/05/19 09:49:24;;;;;;;;;;;21.70;72.40;;;;;;5071006;28;19913;-70
2022/05/19 09:51:51;;;;;;;;;;;21.90;72.30;;;;;;5071274;28;19927;-70
2022/05/19 09:54:16;;;;;;;;;;;22.10;72.90;;;;;;5071018;28;19919;-70
2022/05/19 09:56:47;;;;;;;;;;;22.40;72.40;;;;;;5071105;28;20288;-70
2022/05/19 09:59:13;;;;;;;;;;;22.60;73.10;;;;;;5071212;28;19978;-70
2022/05/19 10:01:40;;;;;;;;;;;22.90;70.10;;;;;;5071933;28;20289;-71
2022/05/19 10:04:23;;;;;;;;;;;23.10;70.10;;;;;;5074860;28;19924;-71
2022/05/19 10:06:57;;;;;;;;;;;23.20;68.90;;;;;;5074915;28;19982;-71
2022/05/19 10:09:32;;;;;;;;;;;23.20;71.90;;;;;;5075038;28;19912;-71
2022/05/19 10:12:05;;;;;;;;;;;23.20;68.80;;;;;;5090447;28;19912;-70
2022/05/19 10:14:31;;;;;;;;;;;23.00;70.80;;;;;;5074992;28;20338;-70
2022/05/19 10:16:57;;;;;;;;;;;22.80;68.40;;;;;;5074586;28;19966;-70
2022/05/19 10:19:33;;;;;;;;;;;22.90;70.60;;;;;;5074488;28;19924;-70
2022/05/19 10:22:17;;;;;;;;;;;23.00;68.40;;;;;;5074261;28;20245;-70
2022/05/19 10:24:58;;;;;;;;;;;23.20;67.30;;;;;;5074639;28;20368;-71
2022/05/19 10:33:22;;;;;;;;;;;24.50;65.30;;;;;;5075246;28;20391;-72
2022/05/19 10:35:57;;;;;;;;;;;24.80;64.10;;;;;;5077068;28;19921;-71
2022/05/19 10:38:43;;;;;;;;;;;24.90;62.80;;;;;;5073973;28;19988;-70
2022/05/19 10:41:08;;;;;;;;;;;25.00;63.20;;;;;;5074586;28;20380;-72
2022/05/19 10:43:37;;;;;;;;;;;25.00;61.10;;;;;;5074118;28;19985;-70
2022/05/19 10:46:05;;;;;;;;;;;24.80;60.80;;;;;;5074229;28;19954;-70
2022/05/19 10:48:40;;;;;;;;;;;24.30;60.80;;;;;;5073566;28;19954;-71
2022/05/19 10:51:26;;;;;;;;;;;24.30;61.90;;;;;;5074004;28;20335;-71
2022/05/19 10:54:06;;;;;;;;;;;24.70;62.70;;;;;;5073876;28;20007;-72
2022/05/19 10:56:53;;;;;;;;;;;24.90;61.40;;;;;;5074508;28;20357;-72
2022/05/19 10:59:30;;;;;;;;;;;25.20;59.80;;;;;;5073930;28;19935;-72
2022/05/19 11:02:08;;;;;;;;;;;25.50;60.50;;;;;;5073823;28;19951;-72
2022/05/19 11:04:52;;;;;;;;;;;25.70;59.00;;;;;;5073910;28;19912;-72
2022/05/19 11:07:23;;;;;;;;;;;25.40;59.90;;;;;;5073679;28;19970;-71
2022/05/19 11:09:52;;;;;;;;;;;25.40;59.30;;;;;;5072453;28;19908;-71
2022/05/19 11:12:24;;;;;;;;;;;25.70;58.00;;;;;;5073725;28;19917;-71
2022/05/19 11:15:05;;;;;;;;;;;25.50;57.30;;;;;;5072936;28;19912;-71
2022/05/19 11:17:31;;;;;;;;;;;25.10;59.40;;;;;;5074016;28;19984;-72
2022/05/19 11:20:23;;;;;;;;;;;24.90;57.00;;;;;;5073907;28;20046;-71
2022/05/19 11:23:12;;;;;;;;;;;24.90;57.40;;;;;;5070351;28;19924;-72
2022/05/19 11:28:40;;;;;;;;;;;24.60;56.60;;;;;;5073715;28;19927;-72
2022/05/19 11:31:16;;;;;;;;;;;24.60;60.00;;;;;;5073303;28;19912;-72
2022/05/19 11:33:45;;;;;;;;;;;24.40;57.00;;;;;;5088790;28;20275;-71
2022/05/19 11:36:36;;;;;;;;;;;24.10;59.40;;;;;;5073781;28;19953;-71
2022/05/19 11:39:07;;;;;;;;;;;23.90;57.30;;;;;;5073213;28;19912;-72
2022/05/19 11:41:35;;;;;;;;;;;23.70;58.60;;;;;;5073336;28;19912;-71
2022/05/19 11:44:10;;;;;;;;;;;23.70;57.70;;;;;;5088568;28;20300;-71
2022/05/19 11:46:54;;;;;;;;;;;23.70;58.10;;;;;;5073267;28;19913;-72
2022/05/19 11:55:17;;;;;;;;;;;22.70;60.20;;;;;;5072858;28;20324;-70
2022/05/19 11:58:03;;;;;;;;;;;22.60;59.40;;;;;;5072588;28;19913;-71
2022/05/19 12:00:32;;;;;;;;;;;22.60;60.20;;;;;;5073202;28;19917;-71
2022/05/19 12:03:04;;;;;;;;;;;22.60;60.80;;;;;;5073158;28;20365;-70
2022/05/19 12:05:32;;;;;;;;;;;22.50;62.20;;;;;;5073154;28;20283;-71
2022/05/19 12:08:05;;;;;;;;;;;22.40;60.90;;;;;;5072766;28;19923;-71
2022/05/19 12:10:39;;;;;;;;;;;22.40;61.60;;;;;;5073136;28;19912;-71
2022/05/19 12:13:05;;;;;;;;;;;22.40;61.20;;;;;;5072644;28;19936;-71
2022/05/19 12:15:36;;;;;;;;;;;22.20;61.20;;;;;;5072678;28;20013;-70
2022/05/19 12:18:08;;;;;;;;;;;22.10;61.20;;;;;;5072867;28;19931;-71
2022/05/19 12:20:36;;;;;;;;;;;22.10;60.20;;;;;;5072541;28;19955;-71
2022/05/19 12:23:22;;;;;;;;;;;22.00;60.20;;;;;;5072175;28;20016;-71
2022/05/19 12:25:50;;;;;;;;;;;22.00;60.40;;;;;;5072174;28;20004;-72
2022/05/19 12:28:19;;;;;;;;;;;21.90;60.50;;;;;;5072012;28;19931;-72
2022/05/19 12:33:48;;;;;;;;;;;21.90;62.20;;;;;;5072493;28;19920;-72
2022/05/19 12:36:23;;;;;;;;;;;21.90;63.50;;;;;;5071926;28;19925;-70
2022/05/19 12:38:49;;;;;;;;;;;21.80;63.20;;;;;;5072342;28;19944;-71
2022/05/19 12:41:28;;;;;;;;;;;21.70;62.90;;;;;;5087631;28;20367;-71
2022/05/19 12:43:54;;;;;;;;;;;21.70;61.10;;;;;;5072087;28;20007;-71
2022/05/19 12:46:38;;;;;;;;;;;21.70;60.80;;;;;;5072044;28;20369;-72
2022/05/19 12:49:16;;;;;;;;;;;21.60;62.20;;;;;;5071782;28;20332;-71
2022/05/19 12:51:47;;;;;;;;;;;21.50;62.60;;;;;;5071646;28;19916;-71
2022/05/19 12:54:13;;;;;;;;;;;21.50;62.30;;;;;;5071775;28;20413;-71
2022/05/19 12:56:38;;;;;;;;;;;21.60;61.10;;;;;;5071910;28;19916;-71
2022/05/19 12:59:05;;;;;;;;;;;21.60;59.70;;;;;;5071774;28;19913;-71
2022/05/19 13:01:33;;;;;;;;;;;21.60;60.00;;;;;;5071623;28;19913;-71
2022/05/19 13:04:11;;;;;;;;;;;21.60;59.20;;;;;;5071615;28;19920;-70
2022/05/19 13:06:46;;;;;;;;;;;21.50;61.20;;;;;;5071454;28;19913;-71
2022/05/19 13:09:15;;;;;;;;;;;21.50;60.20;;;;;;5086828;28;19912;-71
2022/05/19 13:11:44;;;;;;;;;;;21.60;58.80;;;;;;5071875;28;20412;-71
2022/05/19 13:14:14;;;;;;;;;;;21.60;57.30;;;;;;5071403;28;20225;-71
2022/05/19 13:16:44;;;;;;;;;;;21.40;58.30;;;;;;5069827;28;19917;-71
2022/05/19 13:19:13;;;;;;;;;;;21.00;59.60;;;;;;5071284;28;19912;-71
2022/05/19 13:22:02;;;;;;;;;;;20.90;58.80;;;;;;5071202;28;19950;-71
2022/05/19 13:24:28;;;;;;;;;;;20.70;61.00;;;;;;5063801;28;20380;-71
2022/05/19 13:32:24;;;;;;;;;;;20.10;59.70;;;;;;5071847;28;19971;-71
2022/05/19 13:34:51;;;;;;;;;;;20.10;59.70;;;;;;5071300;28;19955;-71
2022/05/19 13:37:36;;;;;;;;;;;20.10;59.60;;;;;;5070601;28;19919;-71
2022/05/19 13:40:11;;;;;;;;;;;20.20;60.20;;;;;;5071522;28;19916;-71
2022/05/19 13:42:37;;;;;;;;;;;20.30;60.30;;;;;;5069754;28;20276;-70
2022/05/19 13:45:02;;;;;;;;;;;20.40;59.30;;;;;;5070811;28;19912;-71
2022/05/19 13:47:28;;;;;;;;;;;20.40;60.90;;;;;;5071302;28;20402;-71
2022/05/19 13:49:57;;;;;;;;;;;20.50;61.00;;;;;;5071131;28;19948;-71
2022/05/19 13:52:24;;;;;;;;;;;20.50;59.80;;;;;;5070993;28;19913;-71
2022/05/19 13:54:50;;;;;;;;;;;20.50;60.60;;;;;;5070678;28;20287;-71
2022/05/19 13:57:21;;;;;;;;;;;20.30;60.00;;;;;;5071254;28;19913;-70
2022/05/19 13:59:48;;;;;;;;;;;20.30;59.10;;;;;;5069469;28;20272;-70
2022/05/19 14:02:22;;;;;;;;;;;20.30;59.60;;;;;;5070826;28;19916;-71
2022/05/19 14:04:48;;;;;;;;;;;20.30;60.20;;;;;;5070624;28;19981;-71
2022/05/19 14:07:16;;;;;;;;;;;20.40;58.70;;;;;;5070845;28;19917;-72
2022/05/19 14:09:47;;;;;;;;;;;20.50;59.30;;;;;;5070928;28;19913;-70
2022/05/19 14:12:13;;;;;;;;;;;20.50;59.30;;;;;;5071427;28;20517;-70
2022/05/19 14:14:46;;;;;;;;;;;20.70;58.50;;;;;;5070775;28;19944;-71
2022/05/19 14:17:12;;;;;;;;;;;20.70;58.50;;;;;;5070959;28;19959;-70
2022/05/19 14:19:37;;;;;;;;;;;20.80;59.00;;;;;;5070927;28;19916;-70
2022/05/19 14:22:03;;;;;;;;;;;20.70;60.00;;;;;;5070784;28;19924;-70
2022/05/19 14:24:29;;;;;;;;;;;20.50;59.70;;;;;;5071023;28;19912;-72
2022/05/19 14:26:56;;;;;;;;;;;20.50;59.10;;;;;;5086280;28;19935;-70
2022/05/19 14:29:24;;;;;;;;;;;20.40;59.40;;;;;;5085883;28;19958;-70
2022/05/19 14:31:49;;;;;;;;;;;20.40;57.10;;;;;;5070500;28;19919;-71
2022/05/19 14:34:26;;;;;;;;;;;20.20;57.20;;;;;;5068937;28;19912;-70
2022/05/19 14:37:13;;;;;;;;;;;20.30;57.40;;;;;;5070844;28;20364;-70
2022/05/19 14:39:41;;;;;;;;;;;20.20;57.50;;;;;;5059842;28;19919;-71
2022/05/19 14:45:05;;;;;;;;;;;20.10;57.20;;;;;;5070766;28;19950;-71
2022/05/19 14:47:35;;;;;;;;;;;20.10;57.50;;;;;;5086608;28;19912;-71
2022/05/19 14:50:04;;;;;;;;;;;20.00;57.80;;;;;;5074128;28;19912;-71
2022/05/19 14:52:35;;;;;;;;;;;20.00;57.90;;;;;;5089854;28;19912;-71
2022/05/19 14:55:01;;;;;;;;;;;19.90;57.40;;;;;;5073837;28;19966;-70
2022/05/19 14:57:28;;;;;;;;;;;19.90;58.40;;;;;;5074007;28;19923;-71
2022/05/19 14:59:55;;;;;;;;;;;19.90;58.40;;;;;;5074378;28;20011;-71
2022/05/19 15:02:22;;;;;;;;;;;19.80;59.00;;;;;;5074358;28;19916;-70
2022/05/19 15:04:47;;;;;;;;;;;20.00;58.30;;;;;;5074306;28;19948;-71